Waynesfield, OH (45896)

7:37 AM EST on December 07, 2016 (GMT -0500)
Lima Allen County | | Change Station

Elev 974 ft 40.71 °N, 84.03 °W | Updated 44 minutes ago

Clear
Clear
26 °F
Feels Like 17 °F
N
9
Wind Variable Wind from WSW

Today
High -- | Low -- °F
--% Chance of Precip.
Yesterday
High -- | Low -- °F
Precip. -- in
Pressure 30.09 in
Visibility 10.0 miles
Clouds Clear
Windchill 17 °F
Dew Point 22 °F
Humidity 84%
Rainfall 0.00 in
Snow Depth Not available.
7:46 AM 5:08 PM
First Quarter, 52% visible
METAR KAOH 071153Z AUTO 24008KT 10SM CLR M03/M06 A3005 RMK AO2 SLP188 70049 T10331056 11006 21033 51014
Pressure 30.09 in
Visibility 10.0 miles
Clouds Clear
Windchill 17 °F
Dew Point 22 °F
Humidity 84%
Rainfall 0.00 in
Snow Depth Not available.
7:46 AM 5:08 PM
First Quarter, 52% visible
METAR KAOH 071153Z AUTO 24008KT 10SM CLR M03/M06 A3005 RMK AO2 SLP188 70049 T10331056 11006 21033 51014

10-Day Weather Forecast

Almanac

Astronomy

Dec. 07, 2016 Rise Set
Actual Time
Civil Twilight
Nautical Twilight
Astronomical Twilight
Moon
Length of Visible Light
Length of Day
Tomorrow will be .
, % of the Moon is Illuminated

Today's Extremes

State Highs State Lows

Community

WunderPhotos

Upload Photos

1,956,111 photos uploaded!

WunderBlog® & News

Nearby

Air Quality

  Air Quality AQ Index Pollutant
Not available.

Snow Depth

Station Depth Elevation

Earthquake Activity

City Distance Mag. Time & Date
Minimum magnitude displayed is 2.5.

Coastal Water Temperatures

Place Temperature

Stations

Nearby Weather Stations

Station Location Temp. Windchill Dew Point Humidity Wind Precip. Elev Updated Type
                   

Watches & Warnings

There are currently no watches in effect.